Antelope, MT

7:23 AM MST on November 28, 2014 (GMT -0700)
MesoWest Comertown Turn-Off MT-5 MP 13.4 MT US MT DOT | Change Station
CLOSE
Current Station
Personal Weather Station
Location: Westby, MT
Elevation: 2100 ft
Nearby Weather Stations

Elev 2100 ft 48.81 °N, 104.25 °W | Updated 40 minutes ago

Overcast
Overcast
9 °F
Feels Like -7 °F
N
13
Wind Variable Wind from East
Gusts 16.0 mph

Today
High -- | Low -- °F
--% Chance of Precip.
Yesterday
High -- | Low -- °F
Precip. -- in
7:25 AM 4:05 PM
Waxing Crescent, 41% visible
Pressure 29.80 in
Visibility 10.0 miles
Clouds Overcast 800 ft
Windchill -7 °F
Dew Point 6 °F
Humidity 88%
Rainfall 0.00 in
Snow Depth Not available.
UV 0 out of 12
Pollen .10 out of 12
Air Quality Not available.
Flu Activity Not available.
METAR KISN 281352Z AUTO 11009KT 10SM OVC008 M09/M11 A2969 RMK AO2 SLP091 T10891111

More Conditions Fewer Conditions

Pressure 29.80 in
Visibility 10.0 miles
Clouds Overcast 800 ft
Windchill -7 °F
Dew Point 6 °F
Humidity 88%
Rainfall 0.00 in
Snow Depth Not available.
UV 0 out of 12
Pollen .10 out of 12
Air Quality Not available.
Flu Activity Not available.
METAR KISN 281352Z AUTO 11009KT 10SM OVC008 M09/M11 A2969 RMK AO2 SLP091 T10891111

More Conditions Fewer Conditions

10-Day Weather Forecast

Almanac

Astronomy

Nov. 28, 2014 Rise Set
Actual Time
Civil Twilight
Nautical Twilight
Astronomical Twilight
Moon
Length of Visible Light
Length of Day
Tomorrow will be .
, % of the Moon is Illuminated

Today's Extremes

State Highs State Lows

Community

WunderPhotos

Upload Photos

1,774,213 photos uploaded!

WunderBlogs® & News

Nearby

Air Quality

  Air Quality AQ Index Pollutant
Not available.

Snow Depth

Station Depth Elevation

Earthquake Activity

City Distance Mag. Time & Date
Minimum magnitude displayed is 2.5.

Coastal Water Temperatures

Place Temperature

Nearby Weather Stations